sensor_id;sensor_type;location;lat;lon;timestamp;temperature;humidity
37868;DHT22;24011;48.880;9.190;2023-02-17T00:01:14;25.20;25.30
37868;DHT22;24011;48.880;9.190;2023-02-17T00:03:46;25.20;25.30
37868;DHT22;24011;48.880;9.190;2023-02-17T00:06:17;25.20;25.30
37868;DHT22;24011;48.880;9.190;2023-02-17T00:08:49;25.20;25.30
37868;DHT22;24011;48.880;9.190;2023-02-17T00:11:19;25.20;25.30
37868;DHT22;24011;48.880;9.190;2023-02-17T00:13:51;25.20;25.40
37868;DHT22;24011;48.880;9.190;2023-02-17T00:16:24;25.20;25.40
37868;DHT22;24011;48.880;9.190;2023-02-17T00:18:56;25.20;25.40
37868;DHT22;24011;48.880;9.190;2023-02-17T00:21:27;25.20;25.40
37868;DHT22;24011;48.880;9.190;2023-02-17T00:23:58;25.20;25.30
37868;DHT22;24011;48.880;9.190;2023-02-17T00:26:28;25.20;25.30
37868;DHT22;24011;48.880;9.190;2023-02-17T00:28:58;25.20;25.30
37868;DHT22;24011;48.880;9.190;2023-02-17T00:31:27;25.20;25.30
37868;DHT22;24011;48.880;9.190;2023-02-17T00:33:58;25.20;25.40
37868;DHT22;24011;48.880;9.190;2023-02-17T00:36:28;25.20;25.40
37868;DHT22;24011;48.880;9.190;2023-02-17T00:38:57;25.20;25.40
37868;DHT22;24011;48.880;9.190;2023-02-17T00:41:29;25.20;25.40
37868;DHT22;24011;48.880;9.190;2023-02-17T00:43:59;25.10;25.30
37868;DHT22;24011;48.880;9.190;2023-02-17T00:46:28;25.10;25.30
37868;DHT22;24011;48.880;9.190;2023-02-17T00:49:01;25.20;25.40
37868;DHT22;24011;48.880;9.190;2023-02-17T00:51:30;25.10;25.50
37868;DHT22;24011;48.880;9.190;2023-02-17T00:53:59;25.10;25.40
37868;DHT22;24011;48.880;9.190;2023-02-17T00:56:28;25.10;25.40
37868;DHT22;24011;48.880;9.190;2023-02-17T00:58:58;25.10;25.40
37868;DHT22;24011;48.880;9.190;2023-02-17T01:01:26;25.10;25.50
37868;DHT22;24011;48.880;9.190;2023-02-17T01:03:59;25.10;25.50
37868;DHT22;24011;48.880;9.190;2023-02-17T01:06:33;25.10;25.50
37868;DHT22;24011;48.880;9.190;2023-02-17T01:09:06;25.10;25.60
37868;DHT22;24011;48.880;9.190;2023-02-17T01:11:36;25.10;25.60
37868;DHT22;24011;48.880;9.190;2023-02-17T01:14:05;25.10;25.50
37868;DHT22;24011;48.880;9.190;2023-02-17T01:16:36;25.00;25.50
37868;DHT22;24011;48.880;9.190;2023-02-17T01:19:09;25.10;25.50
37868;DHT22;24011;48.880;9.190;2023-02-17T01:21:43;25.10;25.50
37868;DHT22;24011;48.880;9.190;2023-02-17T01:24:15;25.10;25.50
37868;DHT22;24011;48.880;9.190;2023-02-17T01:26:44;25.10;25.50
37868;DHT22;24011;48.880;9.190;2023-02-17T01:29:13;25.10;25.50
37868;DHT22;24011;48.880;9.190;2023-02-17T01:31:45;25.10;25.50
37868;DHT22;24011;48.880;9.190;2023-02-17T01:34:14;25.10;25.50
37868;DHT22;24011;48.880;9.190;2023-02-17T01:36:44;25.10;25.60
37868;DHT22;24011;48.880;9.190;2023-02-17T01:39:13;25.10;25.50
37868;DHT22;24011;48.880;9.190;2023-02-17T01:41:42;25.10;25.50
37868;DHT22;24011;48.880;9.190;2023-02-17T01:44:16;25.10;25.50
37868;DHT22;24011;48.880;9.190;2023-02-17T01:46:47;25.10;25.50
37868;DHT22;24011;48.880;9.190;2023-02-17T01:49:35;25.10;25.50
37868;DHT22;24011;48.880;9.190;2023-02-17T01:52:10;25.10;25.80
37868;DHT22;24011;48.880;9.190;2023-02-17T01:54:43;25.10;25.50
37868;DHT22;24011;48.880;9.190;2023-02-17T01:57:16;25.10;25.60
37868;DHT22;24011;48.880;9.190;2023-02-17T01:59:47;25.10;25.50
37868;DHT22;24011;48.880;9.190;2023-02-17T02:02:20;25.10;25.50
37868;DHT22;24011;48.880;9.190;2023-02-17T02:04:52;25.10;25.50
37868;DHT22;24011;48.880;9.190;2023-02-17T02:07:27;25.10;25.50
37868;DHT22;24011;48.880;9.190;2023-02-17T02:09:57;25.10;25.60
37868;DHT22;24011;48.880;9.190;2023-02-17T02:12:28;25.10;25.50
37868;DHT22;24011;48.880;9.190;2023-02-17T02:14:59;25.10;25.50
37868;DHT22;24011;48.880;9.190;2023-02-17T02:17:34;25.10;25.50
37868;DHT22;24011;48.880;9.190;2023-02-17T02:20:32;25.10;25.50
37868;DHT22;24011;48.880;9.190;2023-02-17T02:26:48;25.10;25.60
37868;DHT22;24011;48.880;9.190;2023-02-17T02:32:53;25.10;25.60
37868;DHT22;24011;48.880;9.190;2023-02-17T02:35:31;25.10;25.60
37868;DHT22;24011;48.880;9.190;2023-02-17T02:38:05;25.10;25.60
37868;DHT22;24011;48.880;9.190;2023-02-17T02:40:42;25.10;25.60
37868;DHT22;24011;48.880;9.190;2023-02-17T02:43:13;25.10;25.60
37868;DHT22;24011;48.880;9.190;2023-02-17T02:45:43;25.10;25.60
37868;DHT22;24011;48.880;9.190;2023-02-17T02:48:13;25.00;25.60
37868;DHT22;24011;48.880;9.190;2023-02-17T02:51:03;25.10;25.60
37868;DHT22;24011;48.880;9.190;2023-02-17T02:53:51;25.10;26.10
37868;DHT22;24011;48.880;9.190;2023-02-17T02:56:33;25.10;25.70
37868;DHT22;24011;48.880;9.190;2023-02-17T02:59:15;25.10;25.60
37868;DHT22;24011;48.880;9.190;2023-02-17T03:01:51;25.10;25.70
37868;DHT22;24011;48.880;9.190;2023-02-17T03:04:28;25.10;25.70
37868;DHT22;24011;48.880;9.190;2023-02-17T03:07:06;25.00;25.60
37868;DHT22;24011;48.880;9.190;2023-02-17T03:09:37;25.10;25.60
37868;DHT22;24011;48.880;9.190;2023-02-17T03:12:06;25.10;25.70
37868;DHT22;24011;48.880;9.190;2023-02-17T03:14:36;25.00;25.60
37868;DHT22;24011;48.880;9.190;2023-02-17T03:17:06;25.00;25.70
37868;DHT22;24011;48.880;9.190;2023-02-17T03:19:36;25.00;25.70
37868;DHT22;24011;48.880;9.190;2023-02-17T03:22:10;25.00;25.70
37868;DHT22;24011;48.880;9.190;2023-02-17T03:24:41;25.00;25.70
37868;DHT22;24011;48.880;9.190;2023-02-17T03:27:10;25.00;25.80
37868;DHT22;24011;48.880;9.190;2023-02-17T03:29:39;24.90;25.80
37868;DHT22;24011;48.880;9.190;2023-02-17T03:32:09;24.90;25.90
37868;DHT22;24011;48.880;9.190;2023-02-17T03:34:40;24.80;25.90
37868;DHT22;24011;48.880;9.190;2023-02-17T03:37:09;24.80;25.90
37868;DHT22;24011;48.880;9.190;2023-02-17T03:39:39;24.80;25.90
37868;DHT22;24011;48.880;9.190;2023-02-17T03:42:08;24.80;25.90
37868;DHT22;24011;48.880;9.190;2023-02-17T03:44:40;24.90;26.00
37868;DHT22;24011;48.880;9.190;2023-02-17T03:47:10;24.90;25.90
37868;DHT22;24011;48.880;9.190;2023-02-17T03:49:43;24.90;25.90
37868;DHT22;24011;48.880;9.190;2023-02-17T03:52:13;24.90;25.90
37868;DHT22;24011;48.880;9.190;2023-02-17T03:54:42;24.90;26.40
37868;DHT22;24011;48.880;9.190;2023-02-17T03:57:12;24.90;25.90
37868;DHT22;24011;48.880;9.190;2023-02-17T03:59:42;24.90;25.90
37868;DHT22;24011;48.880;9.190;2023-02-17T04:02:11;24.80;25.80
37868;DHT22;24011;48.880;9.190;2023-02-17T04:04:40;24.80;25.90
37868;DHT22;24011;48.880;9.190;2023-02-17T04:07:10;24.80;25.90
37868;DHT22;24011;48.880;9.190;2023-02-17T04:09:40;24.70;25.90
37868;DHT22;24011;48.880;9.190;2023-02-17T04:12:11;24.70;25.90
37868;DHT22;24011;48.880;9.190;2023-02-17T04:14:40;24.70;25.80
37868;DHT22;24011;48.880;9.190;2023-02-17T04:17:10;24.70;25.80
37868;DHT22;24011;48.880;9.190;2023-02-17T04:19:41;24.70;25.70
37868;DHT22;24011;48.880;9.190;2023-02-17T04:22:11;24.70;25.80
37868;DHT22;24011;48.880;9.190;2023-02-17T04:24:40;24.70;25.80
37868;DHT22;24011;48.880;9.190;2023-02-17T04:27:09;24.70;25.80
37868;DHT22;24011;48.880;9.190;2023-02-17T04:29:41;24.70;25.70
37868;DHT22;24011;48.880;9.190;2023-02-17T04:32:10;24.70;25.80
37868;DHT22;24011;48.880;9.190;2023-02-17T04:34:39;24.60;25.80
37868;DHT22;24011;48.880;9.190;2023-02-17T04:37:08;24.60;25.80
37868;DHT22;24011;48.880;9.190;2023-02-17T04:39:39;24.50;25.80
37868;DHT22;24011;48.880;9.190;2023-02-17T04:42:08;24.60;25.80
37868;DHT22;24011;48.880;9.190;2023-02-17T04:44:36;24.60;25.80
37868;DHT22;24011;48.880;9.190;2023-02-17T04:47:06;24.60;25.80
37868;DHT22;24011;48.880;9.190;2023-02-17T04:49:35;24.60;25.70
37868;DHT22;24011;48.880;9.190;2023-02-17T04:52:04;24.60;25.70
37868;DHT22;24011;48.880;9.190;2023-02-17T04:54:33;24.60;25.70
37868;DHT22;24011;48.880;9.190;2023-02-17T04:57:04;24.60;25.70
37868;DHT22;24011;48.880;9.190;2023-02-17T04:59:33;24.60;25.70
37868;DHT22;24011;48.880;9.190;2023-02-17T05:02:02;24.50;25.70
37868;DHT22;24011;48.880;9.190;2023-02-17T05:04:31;24.50;25.70
37868;DHT22;24011;48.880;9.190;2023-02-17T05:07:00;24.50;25.70
37868;DHT22;24011;48.880;9.190;2023-02-17T05:09:29;24.50;25.70
37868;DHT22;24011;48.880;9.190;2023-02-17T05:11:58;24.50;25.80
37868;DHT22;24011;48.880;9.190;2023-02-17T05:14:29;24.50;25.70
37868;DHT22;24011;48.880;9.190;2023-02-17T05:16:58;24.50;25.70
37868;DHT22;24011;48.880;9.190;2023-02-17T05:19:27;24.50;25.80
37868;DHT22;24011;48.880;9.190;2023-02-17T05:21:56;24.50;25.80
37868;DHT22;24011;48.880;9.190;2023-02-17T05:24:25;24.40;25.80
37868;DHT22;24011;48.880;9.190;2023-02-17T05:26:54;24.40;25.90
37868;DHT22;24011;48.880;9.190;2023-02-17T05:29:26;24.40;25.90
37868;DHT22;24011;48.880;9.190;2023-02-17T05:31:56;24.40;26.00
37868;DHT22;24011;48.880;9.190;2023-02-17T05:34:29;24.40;26.00
37868;DHT22;24011;48.880;9.190;2023-02-17T05:36:58;24.40;25.90
37868;DHT22;24011;48.880;9.190;2023-02-17T05:39:27;24.40;26.00
37868;DHT22;24011;48.880;9.190;2023-02-17T05:41:56;24.40;26.00
37868;DHT22;24011;48.880;9.190;2023-02-17T05:44:26;24.40;26.00
37868;DHT22;24011;48.880;9.190;2023-02-17T05:46:57;24.40;26.00
37868;DHT22;24011;48.880;9.190;2023-02-17T05:49:28;24.40;26.10
37868;DHT22;24011;48.880;9.190;2023-02-17T05:51:58;24.40;26.10
37868;DHT22;24011;48.880;9.190;2023-02-17T05:54:27;24.30;26.00
37868;DHT22;24011;48.880;9.190;2023-02-17T05:56:56;24.40;26.20
37868;DHT22;24011;48.880;9.190;2023-02-17T05:59:28;24.40;26.10
37868;DHT22;24011;48.880;9.190;2023-02-17T06:01:59;24.40;26.10
37868;DHT22;24011;48.880;9.190;2023-02-17T06:04:31;24.40;26.10
37868;DHT22;24011;48.880;9.190;2023-02-17T06:07:01;24.40;26.10
37868;DHT22;24011;48.880;9.190;2023-02-17T06:09:30;24.40;26.20
37868;DHT22;24011;48.880;9.190;2023-02-17T06:12:00;24.40;26.10
37868;DHT22;24011;48.880;9.190;2023-02-17T06:14:29;24.40;26.10
37868;DHT22;24011;48.880;9.190;2023-02-17T06:17:01;24.40;26.20
37868;DHT22;24011;48.880;9.190;2023-02-17T06:19:31;24.40;26.20
37868;DHT22;24011;48.880;9.190;2023-02-17T06:22:01;24.40;26.20
37868;DHT22;24011;48.880;9.190;2023-02-17T06:24:31;24.40;26.20
37868;DHT22;24011;48.880;9.190;2023-02-17T06:27:02;24.40;26.30
37868;DHT22;24011;48.880;9.190;2023-02-17T06:29:35;24.40;26.30
37868;DHT22;24011;48.880;9.190;2023-02-17T06:32:06;24.40;26.30
37868;DHT22;24011;48.880;9.190;2023-02-17T06:34:36;24.40;26.30
37868;DHT22;24011;48.880;9.190;2023-02-17T06:37:06;24.40;26.40
37868;DHT22;24011;48.880;9.190;2023-02-17T06:39:36;24.40;26.40
37868;DHT22;24011;48.880;9.190;2023-02-17T06:42:05;24.30;26.40
37868;DHT22;24011;48.880;9.190;2023-02-17T06:44:36;24.40;26.50
37868;DHT22;24011;48.880;9.190;2023-02-17T06:47:07;24.40;26.50
37868;DHT22;24011;48.880;9.190;2023-02-17T06:49:36;24.40;26.60
37868;DHT22;24011;48.880;9.190;2023-02-17T06:52:07;24.40;26.50
37868;DHT22;24011;48.880;9.190;2023-02-17T06:55:10;24.40;26.50
37868;DHT22;24011;48.880;9.190;2023-02-17T06:59:11;24.40;26.50
37868;DHT22;24011;48.880;9.190;2023-02-17T07:14:55;24.50;26.70
37868;DHT22;24011;48.880;9.190;2023-02-17T07:26:28;24.50;26.90
37868;DHT22;24011;48.880;9.190;2023-02-17T09:38:14;24.60;28.00
37868;DHT22;24011;48.880;9.190;2023-02-17T09:42:03;24.60;28.10
37868;DHT22;24011;48.880;9.190;2023-02-17T09:45:51;24.60;28.10
37868;DHT22;24011;48.880;9.190;2023-02-17T09:50:15;24.60;28.20
37868;DHT22;24011;48.880;9.190;2023-02-17T10:12:17;24.70;28.40
37868;DHT22;24011;48.880;9.190;2023-02-17T10:16:19;24.70;28.50
37868;DHT22;24011;48.880;9.190;2023-02-17T10:24:25;24.80;28.60
37868;DHT22;24011;48.880;9.190;2023-02-17T10:27:49;24.70;28.50
37868;DHT22;24011;48.880;9.190;2023-02-17T10:31:11;24.70;28.70
37868;DHT22;24011;48.880;9.190;2023-02-17T12:18:45;24.90;30.10
37868;DHT22;24011;48.880;9.190;2023-02-17T12:21:37;24.80;30.20
37868;DHT22;24011;48.880;9.190;2023-02-17T12:24:33;24.80;30.10
37868;DHT22;24011;48.880;9.190;2023-02-17T12:34:43;25.00;30.30
37868;DHT22;24011;48.880;9.190;2023-02-17T12:37:18;25.00;30.30
37868;DHT22;24011;48.880;9.190;2023-02-17T12:44:14;25.00;30.40
37868;DHT22;24011;48.880;9.190;2023-02-17T12:47:26;25.10;30.40
37868;DHT22;24011;48.880;9.190;2023-02-17T12:50:40;25.00;30.30
37868;DHT22;24011;48.880;9.190;2023-02-17T12:53:25;25.10;30.20
37868;DHT22;24011;48.880;9.190;2023-02-17T13:30:44;25.20;30.60
37868;DHT22;24011;48.880;9.190;2023-02-17T13:37:57;25.20;30.70
37868;DHT22;24011;48.880;9.190;2023-02-17T13:41:57;25.20;30.70
37868;DHT22;24011;48.880;9.190;2023-02-17T13:44:30;25.20;30.70
37868;DHT22;24011;48.880;9.190;2023-02-17T14:03:29;25.20;30.90
37868;DHT22;24011;48.880;9.190;2023-02-17T14:33:17;25.30;31.20
37868;DHT22;24011;48.880;9.190;2023-02-17T15:30:09;25.20;31.80
37868;DHT22;24011;48.880;9.190;2023-02-17T15:32:38;25.20;31.90
37868;DHT22;24011;48.880;9.190;2023-02-17T15:35:18;25.20;31.80
37868;DHT22;24011;48.880;9.190;2023-02-17T15:37:48;25.10;31.70
37868;DHT22;24011;48.880;9.190;2023-02-17T15:40:19;25.10;31.70
37868;DHT22;24011;48.880;9.190;2023-02-17T15:42:52;25.10;31.70
37868;DHT22;24011;48.880;9.190;2023-02-17T15:45:23;25.10;31.70
37868;DHT22;24011;48.880;9.190;2023-02-17T15:47:58;25.10;31.80
37868;DHT22;24011;48.880;9.190;2023-02-17T15:50:29;25.00;31.80
37868;DHT22;24011;48.880;9.190;2023-02-17T15:52:59;25.00;31.90
37868;DHT22;24011;48.880;9.190;2023-02-17T15:55:28;25.00;31.80
37868;DHT22;24011;48.880;9.190;2023-02-17T15:58:01;25.00;31.90
37868;DHT22;24011;48.880;9.190;2023-02-17T16:00:34;25.00;31.90
37868;DHT22;24011;48.880;9.190;2023-02-17T16:03:03;25.00;31.80
37868;DHT22;24011;48.880;9.190;2023-02-17T16:05:33;25.00;31.80
37868;DHT22;24011;48.880;9.190;2023-02-17T16:08:03;25.00;31.90
37868;DHT22;24011;48.880;9.190;2023-02-17T16:10:34;25.00;31.90
37868;DHT22;24011;48.880;9.190;2023-02-17T16:13:11;25.00;31.80
37868;DHT22;24011;48.880;9.190;2023-02-17T16:15:44;25.00;31.90
37868;DHT22;24011;48.880;9.190;2023-02-17T16:18:19;24.90;31.90
37868;DHT22;24011;48.880;9.190;2023-02-17T16:20:49;24.90;31.90
37868;DHT22;24011;48.880;9.190;2023-02-17T16:23:19;24.90;31.90
37868;DHT22;24011;48.880;9.190;2023-02-17T16:25:49;24.90;31.90
37868;DHT22;24011;48.880;9.190;2023-02-17T16:28:20;24.90;31.90
37868;DHT22;24011;48.880;9.190;2023-02-17T16:30:51;24.90;31.90
37868;DHT22;24011;48.880;9.190;2023-02-17T16:33:21;24.90;31.90
37868;DHT22;24011;48.880;9.190;2023-02-17T16:35:50;24.80;31.90
37868;DHT22;24011;48.880;9.190;2023-02-17T16:38:21;24.90;32.10
37868;DHT22;24011;48.880;9.190;2023-02-17T16:40:51;24.80;31.90
37868;DHT22;24011;48.880;9.190;2023-02-17T16:43:23;24.80;31.90
37868;DHT22;24011;48.880;9.190;2023-02-17T16:45:57;24.80;31.90
37868;DHT22;24011;48.880;9.190;2023-02-17T16:48:28;24.80;31.90
37868;DHT22;24011;48.880;9.190;2023-02-17T16:50:58;24.80;32.00
37868;DHT22;24011;48.880;9.190;2023-02-17T16:53:28;24.80;32.00
37868;DHT22;24011;48.880;9.190;2023-02-17T16:55:57;24.80;32.00
37868;DHT22;24011;48.880;9.190;2023-02-17T16:58:27;24.80;32.60
37868;DHT22;24011;48.880;9.190;2023-02-17T17:00:57;24.80;32.00
37868;DHT22;24011;48.880;9.190;2023-02-17T17:03:26;24.80;32.00
37868;DHT22;24011;48.880;9.190;2023-02-17T17:05:55;24.80;32.00
37868;DHT22;24011;48.880;9.190;2023-02-17T17:08:24;24.80;32.00
37868;DHT22;24011;48.880;9.190;2023-02-17T17:10:53;24.80;32.10
37868;DHT22;24011;48.880;9.190;2023-02-17T17:13:22;24.70;32.00
37868;DHT22;24011;48.880;9.190;2023-02-17T17:15:52;24.70;32.00
37868;DHT22;24011;48.880;9.190;2023-02-17T17:18:24;24.70;32.00
37868;DHT22;24011;48.880;9.190;2023-02-17T17:20:53;24.70;32.10
37868;DHT22;24011;48.880;9.190;2023-02-17T17:23:22;24.70;32.10
37868;DHT22;24011;48.880;9.190;2023-02-17T17:25:52;24.70;32.20
37868;DHT22;24011;48.880;9.190;2023-02-17T17:28:23;24.70;32.10
37868;DHT22;24011;48.880;9.190;2023-02-17T17:30:52;24.70;32.10
37868;DHT22;24011;48.880;9.190;2023-02-17T17:33:21;24.70;32.10
37868;DHT22;24011;48.880;9.190;2023-02-17T17:35:53;24.70;32.10
37868;DHT22;24011;48.880;9.190;2023-02-17T17:38:23;24.70;32.20
37868;DHT22;24011;48.880;9.190;2023-02-17T17:40:52;24.60;32.20
37868;DHT22;24011;48.880;9.190;2023-02-17T17:43:25;24.60;32.20
37868;DHT22;24011;48.880;9.190;2023-02-17T17:45:55;24.60;32.30
37868;DHT22;24011;48.880;9.190;2023-02-17T17:48:24;24.60;32.20
37868;DHT22;24011;48.880;9.190;2023-02-17T17:50:55;24.60;32.20
37868;DHT22;24011;48.880;9.190;2023-02-17T17:53:25;24.60;32.30
37868;DHT22;24011;48.880;9.190;2023-02-17T17:55:57;24.60;32.30
37868;DHT22;24011;48.880;9.190;2023-02-17T17:58:26;24.60;32.30
37868;DHT22;24011;48.880;9.190;2023-02-17T18:00:55;24.60;32.30
37868;DHT22;24011;48.880;9.190;2023-02-17T18:03:26;24.60;32.40
37868;DHT22;24011;48.880;9.190;2023-02-17T18:05:57;24.60;32.40
37868;DHT22;24011;48.880;9.190;2023-02-17T18:08:26;24.60;32.50
37868;DHT22;24011;48.880;9.190;2023-02-17T18:10:55;24.60;32.50
37868;DHT22;24011;48.880;9.190;2023-02-17T18:13:25;24.60;32.50
37868;DHT22;24011;48.880;9.190;2023-02-17T18:15:54;24.50;32.50
37868;DHT22;24011;48.880;9.190;2023-02-17T18:18:24;24.60;32.50
37868;DHT22;24011;48.880;9.190;2023-02-17T18:20:55;24.60;32.50
37868;DHT22;24011;48.880;9.190;2023-02-17T18:23:26;24.60;32.50
37868;DHT22;24011;48.880;9.190;2023-02-17T18:25:55;24.50;32.50
37868;DHT22;24011;48.880;9.190;2023-02-17T18:28:24;24.50;32.50
37868;DHT22;24011;48.880;9.190;2023-02-17T18:30:54;24.50;32.50
37868;DHT22;24011;48.880;9.190;2023-02-17T18:33:25;24.50;32.60
37868;DHT22;24011;48.880;9.190;2023-02-17T18:35:54;24.50;32.70
37868;DHT22;24011;48.880;9.190;2023-02-17T18:38:25;24.50;32.60
37868;DHT22;24011;48.880;9.190;2023-02-17T18:40:54;24.50;32.60
37868;DHT22;24011;48.880;9.190;2023-02-17T18:43:24;24.50;32.70
37868;DHT22;24011;48.880;9.190;2023-02-17T18:45:53;24.50;32.80
37868;DHT22;24011;48.880;9.190;2023-02-17T18:48:22;24.50;32.80
37868;DHT22;24011;48.880;9.190;2023-02-17T18:50:52;24.40;32.70
37868;DHT22;24011;48.880;9.190;2023-02-17T18:53:21;24.40;32.80
37868;DHT22;24011;48.880;9.190;2023-02-17T18:55:52;24.40;32.80
37868;DHT22;24011;48.880;9.190;2023-02-17T18:58:22;24.40;32.90
37868;DHT22;24011;48.880;9.190;2023-02-17T19:00:51;24.40;33.00
37868;DHT22;24011;48.880;9.190;2023-02-17T19:03:20;24.40;32.90
37868;DHT22;24011;48.880;9.190;2023-02-17T19:05:49;24.40;33.30
37868;DHT22;24011;48.880;9.190;2023-02-17T19:08:18;24.50;32.90
37868;DHT22;24011;48.880;9.190;2023-02-17T19:10:47;24.50;32.70
37868;DHT22;24011;48.880;9.190;2023-02-17T19:13:19;24.50;32.70
37868;DHT22;24011;48.880;9.190;2023-02-17T19:15:48;24.60;32.60
37868;DHT22;24011;48.880;9.190;2023-02-17T19:18:18;24.60;32.60
37868;DHT22;24011;48.880;9.190;2023-02-17T19:20:48;24.60;32.50
37868;DHT22;24011;48.880;9.190;2023-02-17T19:23:17;24.60;32.40
37868;DHT22;24011;48.880;9.190;2023-02-17T19:25:49;24.60;32.70
37868;DHT22;24011;48.880;9.190;2023-02-17T19:28:20;24.60;32.30
37868;DHT22;24011;48.880;9.190;2023-02-17T19:30:54;24.70;32.30
37868;DHT22;24011;48.880;9.190;2023-02-17T19:33:25;24.70;32.30
37868;DHT22;24011;48.880;9.190;2023-02-17T19:35:54;24.70;32.30
37868;DHT22;24011;48.880;9.190;2023-02-17T19:38:26;24.60;32.30
37868;DHT22;24011;48.880;9.190;2023-02-17T19:40:56;24.70;32.30
37868;DHT22;24011;48.880;9.190;2023-02-17T19:43:27;24.70;32.20
37868;DHT22;24011;48.880;9.190;2023-02-17T19:45:55;24.70;32.20
37868;DHT22;24011;48.880;9.190;2023-02-17T19:48:25;24.70;32.10
37868;DHT22;24011;48.880;9.190;2023-02-17T19:50:58;24.70;32.20
37868;DHT22;24011;48.880;9.190;2023-02-17T19:53:30;24.70;32.10
37868;DHT22;24011;48.880;9.190;2023-02-17T19:56:06;24.70;32.10
37868;DHT22;24011;48.880;9.190;2023-02-17T19:58:40;24.70;32.10
37868;DHT22;24011;48.880;9.190;2023-02-17T20:01:15;24.70;32.10
37868;DHT22;24011;48.880;9.190;2023-02-17T20:03:44;24.70;32.10
37868;DHT22;24011;48.880;9.190;2023-02-17T20:06:15;24.70;32.00
37868;DHT22;24011;48.880;9.190;2023-02-17T20:08:51;24.70;32.10
37868;DHT22;24011;48.880;9.190;2023-02-17T20:11:23;24.70;32.00
37868;DHT22;24011;48.880;9.190;2023-02-17T20:13:56;24.70;32.00
37868;DHT22;24011;48.880;9.190;2023-02-17T20:16:25;24.70;32.00
37868;DHT22;24011;48.880;9.190;2023-02-17T20:18:55;24.70;32.00
37868;DHT22;24011;48.880;9.190;2023-02-17T20:21:26;24.70;32.00
37868;DHT22;24011;48.880;9.190;2023-02-17T20:23:56;24.70;32.00
37868;DHT22;24011;48.880;9.190;2023-02-17T20:26:28;24.70;32.00
37868;DHT22;24011;48.880;9.190;2023-02-17T20:29:01;24.60;31.90
37868;DHT22;24011;48.880;9.190;2023-02-17T20:31:39;24.70;31.90
37868;DHT22;24011;48.880;9.190;2023-02-17T20:34:26;24.70;32.00
37868;DHT22;24011;48.880;9.190;2023-02-17T20:36:56;24.70;31.90
37868;DHT22;24011;48.880;9.190;2023-02-17T20:39:26;24.70;31.90
37868;DHT22;24011;48.880;9.190;2023-02-17T20:41:56;24.70;31.90
37868;DHT22;24011;48.880;9.190;2023-02-17T20:44:27;24.70;31.90
37868;DHT22;24011;48.880;9.190;2023-02-17T20:46:56;24.70;31.90
37868;DHT22;24011;48.880;9.190;2023-02-17T20:49:26;24.70;32.00
37868;DHT22;24011;48.880;9.190;2023-02-17T20:51:55;24.70;31.90
37868;DHT22;24011;48.880;9.190;2023-02-17T20:54:25;24.70;31.90
37868;DHT22;24011;48.880;9.190;2023-02-17T20:56:54;24.70;31.90
37868;DHT22;24011;48.880;9.190;2023-02-17T20:59:29;24.70;31.90
37868;DHT22;24011;48.880;9.190;2023-02-17T21:01:58;24.70;31.80
37868;DHT22;24011;48.880;9.190;2023-02-17T21:04:27;24.70;31.80
37868;DHT22;24011;48.880;9.190;2023-02-17T21:06:57;24.70;32.20
37868;DHT22;24011;48.880;9.190;2023-02-17T21:09:28;24.70;31.80
37868;DHT22;24011;48.880;9.190;2023-02-17T21:11:57;24.70;31.80
37868;DHT22;24011;48.880;9.190;2023-02-17T21:14:30;24.60;31.80
37868;DHT22;24011;48.880;9.190;2023-02-17T21:16:59;24.60;31.80
37868;DHT22;24011;48.880;9.190;2023-02-17T21:19:28;24.70;31.90
37868;DHT22;24011;48.880;9.190;2023-02-17T21:21:58;24.70;31.80
37868;DHT22;24011;48.880;9.190;2023-02-17T21:24:27;24.70;31.80
37868;DHT22;24011;48.880;9.190;2023-02-17T21:26:56;24.70;31.80
37868;DHT22;24011;48.880;9.190;2023-02-17T21:29:30;24.60;31.70
37868;DHT22;24011;48.880;9.190;2023-02-17T21:31:59;24.70;31.70
37868;DHT22;24011;48.880;9.190;2023-02-17T21:34:28;24.70;31.70
37868;DHT22;24011;48.880;9.190;2023-02-17T21:36:57;24.60;31.70
37868;DHT22;24011;48.880;9.190;2023-02-17T21:39:26;24.70;31.70
37868;DHT22;24011;48.880;9.190;2023-02-17T21:41:56;24.70;31.70
37868;DHT22;24011;48.880;9.190;2023-02-17T21:44:27;24.70;31.70
37868;DHT22;24011;48.880;9.190;2023-02-17T21:47:16;24.70;31.70
37868;DHT22;24011;48.880;9.190;2023-02-17T21:49:45;24.60;31.70
37868;DHT22;24011;48.880;9.190;2023-02-17T21:52:15;24.60;31.60
37868;DHT22;24011;48.880;9.190;2023-02-17T21:54:45;24.60;31.60
37868;DHT22;24011;48.880;9.190;2023-02-17T21:57:14;24.60;31.60
37868;DHT22;24011;48.880;9.190;2023-02-17T21:59:43;24.70;31.60
37868;DHT22;24011;48.880;9.190;2023-02-17T22:02:17;24.70;31.60
37868;DHT22;24011;48.880;9.190;2023-02-17T22:04:46;24.70;31.50
37868;DHT22;24011;48.880;9.190;2023-02-17T22:07:19;24.70;31.50
37868;DHT22;24011;48.880;9.190;2023-02-17T22:09:48;24.70;31.60
37868;DHT22;24011;48.880;9.190;2023-02-17T22:12:18;24.70;31.60
37868;DHT22;24011;48.880;9.190;2023-02-17T22:14:47;24.70;31.50
37868;DHT22;24011;48.880;9.190;2023-02-17T22:17:20;24.70;31.50
37868;DHT22;24011;48.880;9.190;2023-02-17T22:19:52;24.70;31.50
37868;DHT22;24011;48.880;9.190;2023-02-17T22:22:21;24.70;31.50
37868;DHT22;24011;48.880;9.190;2023-02-17T22:24:50;24.70;31.50
37868;DHT22;24011;48.880;9.190;2023-02-17T22:27:19;24.70;31.50
37868;DHT22;24011;48.880;9.190;2023-02-17T22:29:48;24.70;31.50
37868;DHT22;24011;48.880;9.190;2023-02-17T22:32:20;24.70;31.40
37868;DHT22;24011;48.880;9.190;2023-02-17T22:34:50;24.70;31.40
37868;DHT22;24011;48.880;9.190;2023-02-17T22:37:21;24.70;31.40
37868;DHT22;24011;48.880;9.190;2023-02-17T22:39:51;24.70;31.40
37868;DHT22;24011;48.880;9.190;2023-02-17T22:42:21;24.70;31.40
37868;DHT22;24011;48.880;9.190;2023-02-17T22:44:50;24.70;31.40
37868;DHT22;24011;48.880;9.190;2023-02-17T22:47:21;24.70;31.40
37868;DHT22;24011;48.880;9.190;2023-02-17T22:49:53;24.70;31.40
37868;DHT22;24011;48.880;9.190;2023-02-17T22:52:22;24.70;31.40
37868;DHT22;24011;48.880;9.190;2023-02-17T22:54:51;24.70;31.40
37868;DHT22;24011;48.880;9.190;2023-02-17T22:57:20;24.70;31.40
37868;DHT22;24011;48.880;9.190;2023-02-17T22:59:49;24.70;31.40
37868;DHT22;24011;48.880;9.190;2023-02-17T23:02:20;24.70;31.40
37868;DHT22;24011;48.880;9.190;2023-02-17T23:04:49;24.70;31.40
37868;DHT22;24011;48.880;9.190;2023-02-17T23:07:18;24.70;31.40
37868;DHT22;24011;48.880;9.190;2023-02-17T23:09:50;24.60;31.40
37868;DHT22;24011;48.880;9.190;2023-02-17T23:12:19;24.60;31.30
37868;DHT22;24011;48.880;9.190;2023-02-17T23:14:51;24.60;31.40
37868;DHT22;24011;48.880;9.190;2023-02-17T23:17:23;24.60;31.50
37868;DHT22;24011;48.880;9.190;2023-02-17T23:19:53;24.60;31.30
37868;DHT22;24011;48.880;9.190;2023-02-17T23:22:22;24.60;31.30
37868;DHT22;24011;48.880;9.190;2023-02-17T23:24:52;24.60;31.30